Terminal Aerodrome Forecast
Issued by NWS

Home | Current Version | Previous Version | Text Only | Print | Product List | Glossary On
Versions: 1 2 3 4 5 6 7 8 9 10 11 12 13
000
FTUS45 KREV 301700
TAFMMH
TAF
KMMH 301738Z 3018/0118 11006KT P6SM FEW180
     FM302200 28010KT P6SM FEW180
     FM010400 30006KT P6SM SCT035=

USA.gov is the U.S. government's official web portal to all federal, state and local government web resources and services.